Time;durP1;ratioP1;P1;durP2;ratioP2;P2;SDS_P1;SDS_P2;PMS_P1;PMS_P2;Temp;Humidity;BMP_temperature;BMP_pressure;BME280_temperature;BME280_humidity;BME280_pressure;Samples;Min_cycle;Max_cycle;Signal;HPM_P1;HPM_P2
2022/07/30 00:03:44;;;;;;;3.85;2.10;;;;;;;;;;10239709;23;20013;-80
2022/07/30 00:07:48;;;;;;;4.53;1.90;;;;;;;;;;10239125;23;20066;-80
2022/07/30 00:11:51;;;;;;;3.78;2.10;;;;;;;;;;10240535;23;20048;-80
2022/07/30 00:15:54;;;;;;;6.57;2.17;;;;;;;;;;10239489;23;20315;-80
2022/07/30 00:19:56;;;;;;;4.22;2.17;;;;;;;;;;10238374;23;20088;-81
2022/07/30 00:24:00;;;;;;;3.70;2.30;;;;;;;;;;10238563;23;20434;-80
2022/07/30 00:28:03;;;;;;;3.20;2.03;;;;;;;;;;10237802;23;20140;-80
2022/07/30 00:32:06;;;;;;;5.53;2.13;;;;;;;;;;10239576;23;20315;-81
2022/07/30 00:36:09;;;;;;;5.25;2.30;;;;;;;;;;10238630;23;20446;-80
2022/07/30 00:40:13;;;;;;;3.72;2.35;;;;;;;;;;10238446;23;20017;-91
2022/07/30 00:44:16;;;;;;;3.92;2.10;;;;;;;;;;10238654;23;20066;-91
2022/07/30 00:48:19;;;;;;;3.60;2.20;;;;;;;;;;10237417;23;20021;-96
2022/07/30 00:52:21;;;;;;;7.15;2.45;;;;;;;;;;10239967;23;20071;-86
2022/07/30 00:56:25;;;;;;;8.48;2.45;;;;;;;;;;10238754;23;20025;-86
2022/07/30 01:00:28;;;;;;;5.07;2.55;;;;;;;;;;10239503;23;20097;-80
2022/07/30 01:04:31;;;;;;;3.63;2.20;;;;;;;;;;10239648;23;20013;-80
2022/07/30 01:08:34;;;;;;;5.90;2.53;;;;;;;;;;10238535;23;20021;-80
2022/07/30 01:12:38;;;;;;;4.85;2.50;;;;;;;;;;10238441;23;20323;-80
2022/07/30 01:16:43;;;;;;;6.90;2.65;;;;;;;;;;10238590;23;20357;-80
2022/07/30 01:20:55;;;;;;;4.60;2.53;;;;;;;;;;10237651;23;20077;-80
2022/07/30 01:25:06;;;;;;;7.00;2.60;;;;;;;;;;10253443;23;20025;-80
2022/07/30 01:29:13;;;;;;;5.93;2.33;;;;;;;;;;10236766;23;20017;-80
2022/07/30 01:33:19;;;;;;;4.88;2.60;;;;;;;;;;10251830;23;20244;-80
2022/07/30 01:37:22;;;;;;;3.97;2.50;;;;;;;;;;10252756;23;20092;-79
2022/07/30 01:41:26;;;;;;;5.65;2.53;;;;;;;;;;10236273;23;20480;-80
2022/07/30 01:45:32;;;;;;;4.97;2.67;;;;;;;;;;10238080;23;20021;-80
2022/07/30 01:49:36;;;;;;;4.32;2.45;;;;;;;;;;10253541;23;20025;-80
2022/07/30 01:53:41;;;;;;;5.47;2.70;;;;;;;;;;10236465;23;20180;-80
2022/07/30 01:57:45;;;;;;;4.18;2.55;;;;;;;;;;10238657;23;20434;-80
2022/07/30 02:01:49;;;;;;;6.20;2.65;;;;;;;;;;10237160;23;20024;-81
2022/07/30 02:05:57;;;;;;;6.38;2.60;;;;;;;;;;10237622;23;20028;-80
2022/07/30 02:10:05;;;;;;;5.70;2.78;;;;;;;;;;10236415;23;20013;-80
2022/07/30 02:14:17;;;;;;;3.95;2.60;;;;;;;;;;10237322;23;20449;-80
2022/07/30 02:18:28;;;;;;;3.90;2.58;;;;;;;;;;10236844;23;20025;-82
2022/07/30 02:22:37;;;;;;;8.73;2.93;;;;;;;;;;10253304;23;20518;-81
2022/07/30 02:26:42;;;;;;;6.80;2.95;;;;;;;;;;10240314;23;20024;-82
2022/07/30 02:30:49;;;;;;;4.72;2.70;;;;;;;;;;10239103;23;20076;-80
2022/07/30 02:34:59;;;;;;;6.53;2.67;;;;;;;;;;10254862;23;20017;-80
2022/07/30 02:39:03;;;;;;;4.93;2.83;;;;;;;;;;10254620;23;20068;-80
2022/07/30 02:43:06;;;;;;;4.43;2.67;;;;;;;;;;10237708;23;20067;-80
2022/07/30 02:47:10;;;;;;;4.93;2.60;;;;;;;;;;10237840;23;20052;-80
2022/07/30 02:51:17;;;;;;;5.03;2.80;;;;;;;;;;10239027;23;20392;-94
2022/07/30 02:55:20;;;;;;;7.13;2.80;;;;;;;;;;10248826;23;20021;-79
2022/07/30 02:59:24;;;;;;;3.63;2.53;;;;;;;;;;10240744;23;20033;-80
2022/07/30 03:03:28;;;;;;;5.22;3.05;;;;;;;;;;10241262;23;20021;-79
2022/07/30 03:07:34;;;;;;;4.25;2.70;;;;;;;;;;10240363;23;20434;-80
2022/07/30 03:11:37;;;;;;;7.38;2.97;;;;;;;;;;10241060;23;20012;-80
2022/07/30 03:15:44;;;;;;;4.57;2.50;;;;;;;;;;10240763;23;20024;-91
2022/07/30 03:19:49;;;;;;;3.70;2.70;;;;;;;;;;10241083;23;20389;-81
2022/07/30 03:23:56;;;;;;;5.70;2.90;;;;;;;;;;10240979;23;20020;-80
2022/07/30 03:28:01;;;;;;;5.72;3.13;;;;;;;;;;10239723;23;20032;-80
2022/07/30 03:32:05;;;;;;;8.85;2.95;;;;;;;;;;10240294;23;20024;-80
2022/07/30 03:36:09;;;;;;;8.20;2.92;;;;;;;;;;10240477;23;20023;-80
2022/07/30 03:40:15;;;;;;;3.80;2.63;;;;;;;;;;10240666;23;20088;-80
2022/07/30 03:44:18;;;;;;;8.85;2.83;;;;;;;;;;10256635;23;20021;-80
2022/07/30 03:48:21;;;;;;;4.82;2.70;;;;;;;;;;10239919;23;20017;-80
2022/07/30 03:52:25;;;;;;;6.78;3.15;;;;;;;;;;10239889;23;20021;-80
2022/07/30 03:56:29;;;;;;;4.38;3.03;;;;;;;;;;10239655;23;20021;-81
2022/07/30 04:00:32;;;;;;;6.57;3.08;;;;;;;;;;10239870;23;20017;-81
2022/07/30 04:04:34;;;;;;;9.50;4.43;;;;;;;;;;10239949;23;20013;-80
2022/07/30 04:08:37;;;;;;;10.02;6.28;;;;;;;;;;10240360;23;20017;-81
2022/07/30 04:12:41;;;;;;;9.32;5.45;;;;;;;;;;10239845;23;20024;-81
2022/07/30 04:16:49;;;;;;;7.45;3.47;;;;;;;;;;10239910;23;20031;-96
2022/07/30 04:20:53;;;;;;;9.68;5.03;;;;;;;;;;10240034;23;20017;-81
2022/07/30 04:24:58;;;;;;;9.75;5.65;;;;;;;;;;10239226;23;20137;-81
2022/07/30 04:29:04;;;;;;;6.65;3.78;;;;;;;;;;10238975;23;20549;-79
2022/07/30 04:33:07;;;;;;;8.52;5.95;;;;;;;;;;10254857;23;20040;-80
2022/07/30 04:37:10;;;;;;;5.07;3.92;;;;;;;;;;10238007;23;20070;-80
2022/07/30 04:41:13;;;;;;;5.97;4.70;;;;;;;;;;10238703;23;20093;-80
2022/07/30 04:45:18;;;;;;;5.20;3.47;;;;;;;;;;10238590;23;20461;-80
2022/07/30 04:49:22;;;;;;;5.68;3.20;;;;;;;;;;10236911;23;20043;-80
2022/07/30 04:53:26;;;;;;;8.05;4.13;;;;;;;;;;10237709;23;20017;-81
2022/07/30 04:57:31;;;;;;;6.60;3.50;;;;;;;;;;10238728;23;20020;-80
2022/07/30 05:01:37;;;;;;;6.50;3.45;;;;;;;;;;10238508;23;20017;-80
2022/07/30 05:05:41;;;;;;;5.57;3.20;;;;;;;;;;10238098;23;20052;-88
2022/07/30 05:09:44;;;;;;;6.30;3.20;;;;;;;;;;10238088;23;20021;-79
2022/07/30 05:13:48;;;;;;;7.28;3.50;;;;;;;;;;10237973;23;20025;-80
2022/07/30 05:17:52;;;;;;;5.18;2.88;;;;;;;;;;10237924;23;20449;-80
2022/07/30 05:21:55;;;;;;;8.90;3.83;;;;;;;;;;10238144;23;20028;-80
2022/07/30 05:25:58;;;;;;;6.82;3.38;;;;;;;;;;10239168;23;20021;-80
2022/07/30 05:30:01;;;;;;;5.53;3.30;;;;;;;;;;10239714;23;20083;-81
2022/07/30 05:34:05;;;;;;;6.43;3.53;;;;;;;;;;10238488;23;20092;-81
2022/07/30 05:38:08;;;;;;;7.57;3.40;;;;;;;;;;10237930;23;20017;-80
2022/07/30 05:42:11;;;;;;;7.20;3.40;;;;;;;;;;10237969;23;20036;-82
2022/07/30 05:46:14;;;;;;;5.40;3.65;;;;;;;;;;10238612;23;20024;-81
2022/07/30 05:50:19;;;;;;;6.47;3.67;;;;;;;;;;10239199;23;20021;-81
2022/07/30 05:54:23;;;;;;;6.30;4.07;;;;;;;;;;10251053;23;20041;-82
2022/07/30 05:58:25;;;;;;;6.60;4.13;;;;;;;;;;10238401;23;20047;-83
2022/07/30 06:02:31;;;;;;;21.38;9.02;;;;;;;;;;10242560;23;20096;-82
2022/07/30 06:06:44;;;;;;;12.80;3.80;;;;;;;;;;10255626;23;20017;-82
2022/07/30 06:10:52;;;;;;;8.52;4.18;;;;;;;;;;10240144;23;20028;-83
2022/07/30 06:14:55;;;;;;;9.23;4.10;;;;;;;;;;10164280;23;20025;-83
2022/07/30 06:18:58;;;;;;;25.80;11.40;;;;;;;;;;10238448;23;20037;-82
2022/07/30 06:23:03;;;;;;;7.18;4.20;;;;;;;;;;10238234;23;20041;-82
2022/07/30 06:27:07;;;;;;;9.25;4.80;;;;;;;;;;10239039;23;20024;-81
2022/07/30 06:31:09;;;;;;;10.15;5.03;;;;;;;;;;10237948;23;20438;-82
2022/07/30 06:35:12;;;;;;;5.60;4.05;;;;;;;;;;10240086;23;20017;-82
2022/07/30 06:39:18;;;;;;;7.40;4.18;;;;;;;;;;10208487;23;20104;-82
2022/07/30 06:43:21;;;;;;;7.38;3.78;;;;;;;;;;10231535;23;20017;-82
2022/07/30 06:47:27;;;;;;;8.02;4.10;;;;;;;;;;10230564;23;20032;-82
2022/07/30 06:51:32;;;;;;;5.82;3.60;;;;;;;;;;10230526;23;20028;-83
2022/07/30 06:55:38;;;;;;;7.60;4.35;;;;;;;;;;10152663;23;20129;-83
2022/07/30 06:59:43;;;;;;;7.60;4.10;;;;;;;;;;10132685;23;20459;-83
2022/07/30 07:03:48;;;;;;;7.50;3.92;;;;;;;;;;10135891;23;20101;-83
2022/07/30 07:07:51;;;;;;;5.25;3.78;;;;;;;;;;10134968;23;20092;-82
2022/07/30 07:11:57;;;;;;;8.50;3.75;;;;;;;;;;10134761;23;20101;-83
2022/07/30 07:16:03;;;;;;;6.63;3.92;;;;;;;;;;10133860;23;20021;-83
2022/07/30 07:20:09;;;;;;;6.30;3.83;;;;;;;;;;10136095;23;20021;-83
2022/07/30 07:24:14;;;;;;;7.10;4.05;;;;;;;;;;10151227;23;20034;-84
2022/07/30 07:28:29;;;;;;;9.65;4.32;;;;;;;;;;10135564;23;20328;-84
2022/07/30 07:32:34;;;;;;;6.25;4.55;;;;;;;;;;10134682;23;20022;-84
2022/07/30 07:36:41;;;;;;;7.00;3.88;;;;;;;;;;10150558;23;20093;-84
2022/07/30 07:40:46;;;;;;;7.43;3.97;;;;;;;;;;10142221;23;20065;-84
2022/07/30 07:44:52;;;;;;;8.73;4.00;;;;;;;;;;10141387;23;20100;-84
2022/07/30 07:48:56;;;;;;;6.65;3.75;;;;;;;;;;10146522;23;20021;-87
2022/07/30 07:52:59;;;;;;;7.80;3.70;;;;;;;;;;10152427;23;20026;-87
2022/07/30 07:57:06;;;;;;;5.93;4.00;;;;;;;;;;10234980;23;20442;-82
2022/07/30 08:01:11;;;;;;;8.00;3.80;;;;;;;;;;10234310;23;20021;-84
2022/07/30 08:05:18;;;;;;;4.72;3.78;;;;;;;;;;10240910;23;20683;-84
2022/07/30 08:09:21;;;;;;;7.47;4.00;;;;;;;;;;10256408;23;20067;-80
2022/07/30 08:13:25;;;;;;;6.97;4.10;;;;;;;;;;10240812;23;20021;-87
2022/07/30 08:17:31;;;;;;;5.85;3.88;;;;;;;;;;10237781;23;20017;-81
2022/07/30 08:21:41;;;;;;;4.68;3.47;;;;;;;;;;10251696;23;20032;-91
2022/07/30 08:25:45;;;;;;;5.65;3.63;;;;;;;;;;10237211;23;20044;-87
2022/07/30 08:29:54;;;;;;;5.68;3.53;;;;;;;;;;10235152;23;20048;-85
2022/07/30 08:34:02;;;;;;;8.23;3.78;;;;;;;;;;10236967;23;20021;-87
2022/07/30 08:38:06;;;;;;;9.32;4.68;;;;;;;;;;10257120;23;20024;-83
2022/07/30 08:42:15;;;;;;;8.40;4.07;;;;;;;;;;10233286;23;20028;-83
2022/07/30 08:46:25;;;;;;;9.68;3.55;;;;;;;;;;10234186;23;20021;-83
2022/07/30 08:50:31;;;;;;;7.38;3.72;;;;;;;;;;10232834;23;20021;-81
2022/07/30 08:54:34;;;;;;;5.60;3.53;;;;;;;;;;10233357;23;20346;-90
2022/07/30 08:58:38;;;;;;;9.20;3.70;;;;;;;;;;10235551;23;20017;-94
2022/07/30 09:02:44;;;;;;;4.88;3.10;;;;;;;;;;10241509;23;20077;-84
2022/07/30 09:06:50;;;;;;;74.20;36.22;;;;;;;;;;10232434;23;20024;-84
2022/07/30 09:10:54;;;;;;;57.10;25.85;;;;;;;;;;10234220;23;20052;-85
2022/07/30 09:15:04;;;;;;;17.42;7.95;;;;;;;;;;10232311;23;20021;-83
2022/07/30 09:19:14;;;;;;;11.45;3.80;;;;;;;;;;10233042;23;20032;-86
2022/07/30 09:23:19;;;;;;;24.30;12.32;;;;;;;;;;10249212;23;20041;-83
2022/07/30 09:27:23;;;;;;;12.25;6.60;;;;;;;;;;10229855;23;20025;-90
2022/07/30 09:31:26;;;;;;;30.20;15.23;;;;;;;;;;10235749;23;20024;-89
2022/07/30 09:35:30;;;;;;;31.75;16.45;;;;;;;;;;10236939;23;20701;-82
2022/07/30 09:39:36;;;;;;;7.40;4.40;;;;;;;;;;10232172;23;20450;-82
2022/07/30 09:43:45;;;;;;;31.10;13.88;;;;;;;;;;10230904;23;20043;-82
2022/07/30 09:47:49;;;;;;;45.00;19.50;;;;;;;;;;10231265;23;20021;-83
2022/07/30 09:51:54;;;;;;;274.65;133.70;;;;;;;;;;10250721;23;20021;-83
2022/07/30 09:56:01;;;;;;;108.32;46.22;;;;;;;;;;10248922;23;20028;-84
2022/07/30 10:00:23;;;;;;;177.80;68.03;;;;;;;;;;10258770;23;20084;-85
2022/07/30 10:04:27;;;;;;;214.02;88.13;;;;;;;;;;10259474;23;20017;-82
2022/07/30 10:08:42;;;;;;;78.13;32.60;;;;;;;;;;10251502;23;20047;-83
2022/07/30 10:12:52;;;;;;;9.35;4.93;;;;;;;;;;10243293;23;20068;-88
2022/07/30 10:16:59;;;;;;;50.58;23.90;;;;;;;;;;10248534;23;20018;-82
2022/07/30 10:21:05;;;;;;;7.63;3.60;;;;;;;;;;10251969;23;20017;-87
2022/07/30 10:25:12;;;;;;;147.63;69.10;;;;;;;;;;10234918;23;20454;-88
2022/07/30 10:29:19;;;;;;;26.77;15.10;;;;;;;;;;10234844;23;20070;-83
2022/07/30 10:33:26;;;;;;;11.95;5.97;;;;;;;;;;10234045;23;20100;-83
2022/07/30 10:37:36;;;;;;;99.10;52.30;;;;;;;;;;10250938;23;20141;-90
2022/07/30 10:41:55;;;;;;;27.20;14.93;;;;;;;;;;10238936;23;20029;-89
2022/07/30 10:46:10;;;;;;;12.60;7.75;;;;;;;;;;10249993;23;20108;-88
2022/07/30 10:50:19;;;;;;;13.10;8.75;;;;;;;;;;10249730;23;20025;-84
2022/07/30 10:54:40;;;;;;;8.55;4.50;;;;;;;;;;10233428;23;20083;-88
2022/07/30 10:59:06;;;;;;;28.55;14.18;;;;;;;;;;10235083;23;20028;-90
2022/07/30 11:08:38;;;;;;;24.30;13.85;;;;;;;;;;10250414;23;20468;-83
2022/07/30 11:12:59;;;;;;;51.25;27.35;;;;;;;;;;10232788;23;20396;-87
2022/07/30 11:17:56;;;;;;;6.82;4.38;;;;;;;;;;10228908;23;20125;-86
2022/07/30 11:22:37;;;;;;;6.18;4.38;;;;;;;;;;10232103;23;20043;-84
2022/07/30 11:26:52;;;;;;;15.85;9.30;;;;;;;;;;10235387;23;20067;-85
2022/07/30 11:30:59;;;;;;;13.00;7.18;;;;;;;;;;10237982;23;20043;-83
2022/07/30 11:35:20;;;;;;;59.13;30.63;;;;;;;;;;10235558;23;20096;-84
2022/07/30 11:40:04;;;;;;;22.63;11.27;;;;;;;;;;10234061;23;20416;-85
2022/07/30 11:44:26;;;;;;;11.50;6.90;;;;;;;;;;10234550;23;20075;-85
2022/07/30 11:48:31;;;;;;;16.38;8.18;;;;;;;;;;10230696;23;20032;-84
2022/07/30 11:52:38;;;;;;;6.30;4.43;;;;;;;;;;10231804;23;20618;-83
2022/07/30 11:56:53;;;;;;;13.48;9.57;;;;;;;;;;10233610;23;20020;-91
2022/07/30 12:00:59;;;;;;;6.57;4.68;;;;;;;;;;10250680;23;20028;-84
2022/07/30 12:05:04;;;;;;;15.95;8.77;;;;;;;;;;10235663;23;20013;-84
2022/07/30 12:09:07;;;;;;;22.80;11.95;;;;;;;;;;10236993;23;20457;-85
2022/07/30 12:13:16;;;;;;;8.68;5.55;;;;;;;;;;10235711;23;20147;-85
2022/07/30 12:17:19;;;;;;;7.40;4.95;;;;;;;;;;10252285;23;20048;-85
2022/07/30 12:21:25;;;;;;;22.35;8.68;;;;;;;;;;10238676;23;20013;-84
2022/07/30 12:25:29;;;;;;;9.32;4.93;;;;;;;;;;10234772;23;20096;-83
2022/07/30 12:29:36;;;;;;;8.98;5.57;;;;;;;;;;10237725;23;20064;-85
2022/07/30 12:33:39;;;;;;;12.25;6.13;;;;;;;;;;10254359;23;20021;-81
2022/07/30 12:38:07;;;;;;;27.60;12.25;;;;;;;;;;10208348;23;20025;-83
2022/07/30 12:42:21;;;;;;;11.48;6.57;;;;;;;;;;10236676;23;20024;-82
2022/07/30 12:46:40;;;;;;;10.70;5.65;;;;;;;;;;10254346;23;20013;-79
2022/07/30 12:50:44;;;;;;;28.70;13.73;;;;;;;;;;10237984;23;20041;-83
2022/07/30 12:55:01;;;;;;;15.10;9.13;;;;;;;;;;10236702;23;20020;-79
2022/07/30 12:59:06;;;;;;;20.33;11.15;;;;;;;;;;10254566;23;20438;-79
2022/07/30 13:03:24;;;;;;;39.72;19.00;;;;;;;;;;10237731;23;20017;-80
2022/07/30 13:07:31;;;;;;;20.38;8.30;;;;;;;;;;10237004;23;20019;-79
2022/07/30 13:11:44;;;;;;;11.55;5.75;;;;;;;;;;10238106;23;20013;-78
2022/07/30 13:15:59;;;;;;;11.60;6.57;;;;;;;;;;10238144;23;20025;-81
2022/07/30 13:20:07;;;;;;;19.35;8.65;;;;;;;;;;10231833;23;20067;-80
2022/07/30 13:24:11;;;;;;;13.73;7.55;;;;;;;;;;10231643;23;20096;-79
2022/07/30 13:28:24;;;;;;;10.43;6.10;;;;;;;;;;10231475;23;20067;-79
2022/07/30 13:32:36;;;;;;;7.20;5.50;;;;;;;;;;10231238;23;20489;-84
2022/07/30 13:36:42;;;;;;;15.45;8.90;;;;;;;;;;10231458;23;20020;-83
2022/07/30 13:40:45;;;;;;;13.20;6.95;;;;;;;;;;10230725;23;20434;-83
2022/07/30 13:44:49;;;;;;;10.40;5.90;;;;;;;;;;10232006;23;20025;-84
2022/07/30 13:48:52;;;;;;;9.70;6.82;;;;;;;;;;10231394;23;20029;-81
2022/07/30 13:52:58;;;;;;;13.68;8.55;;;;;;;;;;10231484;23;20028;-83
2022/07/30 13:57:01;;;;;;;12.85;7.90;;;;;;;;;;10229991;23;20040;-89
2022/07/30 14:01:07;;;;;;;9.27;6.32;;;;;;;;;;10230924;23;20028;-83
2022/07/30 14:05:11;;;;;;;16.15;8.73;;;;;;;;;;10232763;23;20443;-83
2022/07/30 14:14:00;;;;;;;9.88;7.35;;;;;;;;;;10248870;23;20048;-80
2022/07/30 14:18:25;;;;;;;30.48;16.25;;;;;;;;;;10247798;23;20021;-82
2022/07/30 14:22:29;;;;;;;11.00;6.85;;;;;;;;;;10249437;23;20027;-81
2022/07/30 14:26:34;;;;;;;9.88;7.50;;;;;;;;;;10234836;23;20018;-81
2022/07/30 14:30:38;;;;;;;8.30;6.60;;;;;;;;;;10236412;23;20458;-85
2022/07/30 14:34:42;;;;;;;13.50;7.38;;;;;;;;;;10236850;23;20020;-81
2022/07/30 14:39:05;;;;;;;13.60;8.65;;;;;;;;;;10237613;23;20100;-82
2022/07/30 14:43:09;;;;;;;16.02;10.65;;;;;;;;;;10237545;23;20017;-81
2022/07/30 14:47:13;;;;;;;7.40;5.65;;;;;;;;;;10238912;23;20147;-90
2022/07/30 14:51:17;;;;;;;9.32;5.90;;;;;;;;;;10241536;23;20043;-84
2022/07/30 14:55:20;;;;;;;7.50;5.30;;;;;;;;;;10240193;23;20028;-82
2022/07/30 14:59:26;;;;;;;8.35;5.82;;;;;;;;;;10241424;23;20327;-84
2022/07/30 15:03:34;;;;;;;15.57;8.95;;;;;;;;;;10244320;23;20037;-83
2022/07/30 15:07:41;;;;;;;8.48;5.70;;;;;;;;;;10238817;23;20039;-84
2022/07/30 15:11:45;;;;;;;9.10;5.43;;;;;;;;;;10239899;23;20029;-81
2022/07/30 15:15:51;;;;;;;7.05;5.05;;;;;;;;;;10240321;23;20430;-82
2022/07/30 15:19:56;;;;;;;8.77;5.70;;;;;;;;;;10240537;23;20074;-81
2022/07/30 15:24:04;;;;;;;11.18;7.65;;;;;;;;;;10256987;23;20044;-81
2022/07/30 15:28:07;;;;;;;8.80;5.80;;;;;;;;;;10164386;23;20382;-81
2022/07/30 15:32:12;;;;;;;10.32;5.60;;;;;;;;;;10241014;23;20023;-81
2022/07/30 15:36:15;;;;;;;8.02;5.70;;;;;;;;;;10238718;23;20021;-81
2022/07/30 15:40:20;;;;;;;9.77;5.50;;;;;;;;;;10239872;23;20108;-81
2022/07/30 15:44:24;;;;;;;14.45;6.97;;;;;;;;;;10240699;23;20021;-81
2022/07/30 15:48:29;;;;;;;8.38;5.50;;;;;;;;;;10240127;23;20082;-82
2022/07/30 15:52:33;;;;;;;12.57;6.88;;;;;;;;;;10239835;23;20043;-82
2022/07/30 15:56:36;;;;;;;9.27;5.55;;;;;;;;;;10239436;23;20021;-84
2022/07/30 16:00:39;;;;;;;9.80;5.60;;;;;;;;;;10239593;23;20017;-82
2022/07/30 16:04:45;;;;;;;8.45;4.85;;;;;;;;;;10213366;23;20013;-82
2022/07/30 16:08:49;;;;;;;11.18;6.70;;;;;;;;;;10239235;23;20013;-82
2022/07/30 16:12:53;;;;;;;9.25;5.10;;;;;;;;;;10239420;23;20028;-86
2022/07/30 16:16:56;;;;;;;8.65;5.80;;;;;;;;;;10239411;23;20116;-81
2022/07/30 16:21:01;;;;;;;24.40;10.93;;;;;;;;;;10239229;23;20013;-82
2022/07/30 16:25:06;;;;;;;11.88;7.65;;;;;;;;;;10239105;23;20017;-81
2022/07/30 16:29:10;;;;;;;7.15;5.25;;;;;;;;;;10239122;23;20394;-81
2022/07/30 16:33:14;;;;;;;10.80;5.75;;;;;;;;;;10237936;23;20024;-82
2022/07/30 16:37:20;;;;;;;8.10;5.78;;;;;;;;;;10212186;23;20021;-81
2022/07/30 16:41:23;;;;;;;7.75;5.55;;;;;;;;;;10238463;23;20017;-80
2022/07/30 16:45:29;;;;;;;19.52;14.68;;;;;;;;;;10238309;23;20025;-81
2022/07/30 16:49:32;;;;;;;7.40;5.63;;;;;;;;;;10254414;23;20068;-81
2022/07/30 16:53:38;;;;;;;12.55;6.65;;;;;;;;;;10237402;23;20023;-82
2022/07/30 16:57:41;;;;;;;9.43;6.65;;;;;;;;;;10237982;23;20017;-82
2022/07/30 17:01:46;;;;;;;10.63;6.45;;;;;;;;;;10238394;23;20096;-83
2022/07/30 17:05:50;;;;;;;9.05;6.00;;;;;;;;;;10238668;23;20017;-82
2022/07/30 17:09:55;;;;;;;21.35;10.05;;;;;;;;;;10237228;23;20438;-83
2022/07/30 17:13:58;;;;;;;10.38;6.28;;;;;;;;;;10231273;23;20021;-87
2022/07/30 17:18:03;;;;;;;36.13;23.33;;;;;;;;;;10232962;23;20021;-83
2022/07/30 17:22:07;;;;;;;9.07;6.30;;;;;;;;;;10231537;23;20021;-85
2022/07/30 17:26:12;;;;;;;9.23;5.68;;;;;;;;;;10229545;23;20076;-83
2022/07/30 17:30:19;;;;;;;9.23;5.45;;;;;;;;;;10229211;23;20116;-84
2022/07/30 17:34:23;;;;;;;7.32;5.43;;;;;;;;;;10244633;23;20458;-84
2022/07/30 17:38:27;;;;;;;8.95;5.50;;;;;;;;;;10231948;23;20143;-83
2022/07/30 17:42:33;;;;;;;9.35;5.72;;;;;;;;;;10229117;23;20025;-84
2022/07/30 17:46:38;;;;;;;9.27;6.15;;;;;;;;;;10231814;23;20021;-85
2022/07/30 17:50:43;;;;;;;9.70;5.82;;;;;;;;;;10231718;23;20469;-84
2022/07/30 17:54:47;;;;;;;9.13;5.97;;;;;;;;;;10231898;23;20016;-83
2022/07/30 17:58:52;;;;;;;8.00;5.45;;;;;;;;;;10231902;23;20017;-88
2022/07/30 18:02:55;;;;;;;10.30;5.63;;;;;;;;;;10231976;23;20417;-83
2022/07/30 18:07:04;;;;;;;10.50;6.35;;;;;;;;;;10232268;23;20024;-81
2022/07/30 18:11:07;;;;;;;7.40;5.15;;;;;;;;;;10230834;23;20055;-80
2022/07/30 18:15:13;;;;;;;9.48;6.05;;;;;;;;;;10231090;23;20040;-89
2022/07/30 18:19:22;;;;;;;10.13;6.18;;;;;;;;;;10230058;23;20021;-80
2022/07/30 18:23:26;;;;;;;12.43;6.53;;;;;;;;;;10233608;23;20076;-82
2022/07/30 18:27:30;;;;;;;12.63;7.70;;;;;;;;;;10234876;23;20059;-81
2022/07/30 18:31:37;;;;;;;11.70;6.40;;;;;;;;;;10233561;23;20095;-81
2022/07/30 18:35:41;;;;;;;13.05;6.90;;;;;;;;;;10234708;23;20040;-80
2022/07/30 18:39:45;;;;;;;11.02;6.30;;;;;;;;;;10233550;23;20021;-83
2022/07/30 18:43:48;;;;;;;13.98;6.05;;;;;;;;;;10233993;23;20080;-83
2022/07/30 18:47:56;;;;;;;11.73;5.85;;;;;;;;;;10235133;23;20116;-83
2022/07/30 18:51:59;;;;;;;15.73;8.70;;;;;;;;;;10234311;23;20021;-84
2022/07/30 18:56:05;;;;;;;9.65;5.53;;;;;;;;;;10233173;23;20103;-81
2022/07/30 19:00:11;;;;;;;9.95;6.30;;;;;;;;;;10233676;23;20020;-81
2022/07/30 19:04:20;;;;;;;11.57;6.68;;;;;;;;;;10233986;23;20017;-81
2022/07/30 19:08:33;;;;;;;9.05;5.45;;;;;;;;;;10234400;23;20462;-81
2022/07/30 19:12:36;;;;;;;10.52;5.55;;;;;;;;;;10234655;23;20028;-82
2022/07/30 19:16:51;;;;;;;11.75;6.13;;;;;;;;;;10236014;23;20100;-83
2022/07/30 19:20:58;;;;;;;10.35;5.60;;;;;;;;;;10255332;23;20024;-82
2022/07/30 19:25:04;;;;;;;10.55;5.75;;;;;;;;;;10255582;23;20024;-81
2022/07/30 19:29:08;;;;;;;9.15;5.55;;;;;;;;;;10239937;23;20025;-82
2022/07/30 19:33:14;;;;;;;7.97;6.07;;;;;;;;;;10238989;23;20024;-80
2022/07/30 19:37:19;;;;;;;8.00;5.10;;;;;;;;;;10239222;23;20021;-82
2022/07/30 19:41:22;;;;;;;8.30;5.88;;;;;;;;;;10239067;23;20021;-81
2022/07/30 19:45:35;;;;;;;8.50;6.28;;;;;;;;;;10237608;23;20083;-82
2022/07/30 19:49:46;;;;;;;15.27;8.20;;;;;;;;;;10237796;23;20013;-87
2022/07/30 19:54:00;;;;;;;9.23;6.57;;;;;;;;;;10254799;23;20029;-87
2022/07/30 19:58:09;;;;;;;11.57;6.85;;;;;;;;;;10237766;23;20092;-81
2022/07/30 20:02:14;;;;;;;15.48;6.63;;;;;;;;;;10239704;23;20101;-80
2022/07/30 20:06:18;;;;;;;10.77;6.90;;;;;;;;;;10239845;23;20462;-81
2022/07/30 20:10:28;;;;;;;9.25;6.53;;;;;;;;;;10240179;23;20518;-82
2022/07/30 20:14:33;;;;;;;9.02;6.43;;;;;;;;;;10240002;23;20037;-81
2022/07/30 20:18:37;;;;;;;7.90;6.10;;;;;;;;;;10239482;23;20100;-81
2022/07/30 20:22:41;;;;;;;12.38;6.22;;;;;;;;;;10239604;23;20040;-82
2022/07/30 20:26:48;;;;;;;9.75;6.25;;;;;;;;;;10239205;23;20021;-84
2022/07/30 20:30:52;;;;;;;11.43;6.18;;;;;;;;;;10255642;23;20117;-82
2022/07/30 20:34:55;;;;;;;10.98;7.05;;;;;;;;;;10257150;23;20047;-81
2022/07/30 20:38:59;;;;;;;8.93;6.88;;;;;;;;;;10264881;23;20027;-81
2022/07/30 20:43:06;;;;;;;8.23;5.78;;;;;;;;;;10278828;23;20024;-82
2022/07/30 20:47:10;;;;;;;8.82;6.50;;;;;;;;;;10244440;23;20021;-86
2022/07/30 20:51:13;;;;;;;9.68;6.03;;;;;;;;;;10240156;23;20024;-80
2022/07/30 20:55:16;;;;;;;8.25;6.20;;;;;;;;;;10239827;23;20017;-80
2022/07/30 20:59:21;;;;;;;8.00;6.43;;;;;;;;;;10240140;23;20013;-82
2022/07/30 21:03:25;;;;;;;10.43;6.53;;;;;;;;;;10238994;23;20024;-81
2022/07/30 21:07:30;;;;;;;10.10;7.30;;;;;;;;;;10238166;23;20021;-81
2022/07/30 21:11:33;;;;;;;10.38;6.40;;;;;;;;;;10238171;23;20017;-80
2022/07/30 21:15:39;;;;;;;11.10;6.57;;;;;;;;;;10238489;23;20021;-81
2022/07/30 21:19:46;;;;;;;10.32;7.00;;;;;;;;;;10238282;23;20021;-87
2022/07/30 21:23:49;;;;;;;8.88;6.80;;;;;;;;;;10238457;23;20020;-80
2022/07/30 21:27:52;;;;;;;11.23;6.55;;;;;;;;;;10238222;23;20028;-80
2022/07/30 21:31:57;;;;;;;9.63;6.28;;;;;;;;;;10237740;23;20028;-80
2022/07/30 21:36:01;;;;;;;10.35;6.82;;;;;;;;;;10238647;23;20017;-84
2022/07/30 21:40:06;;;;;;;8.88;5.82;;;;;;;;;;10237905;23;20024;-80
2022/07/30 21:44:11;;;;;;;8.23;6.30;;;;;;;;;;10254480;23;20017;-79
2022/07/30 21:48:17;;;;;;;9.20;6.30;;;;;;;;;;10237110;23;20017;-80
2022/07/30 21:52:20;;;;;;;5.82;5.20;;;;;;;;;;10254194;23;20021;-81
2022/07/30 21:56:23;;;;;;;6.80;5.18;;;;;;;;;;10237378;23;20354;-81
2022/07/30 22:00:43;;;;;;;7.95;5.43;;;;;;;;;;10237688;23;20017;-81
2022/07/30 22:04:48;;;;;;;7.78;5.38;;;;;;;;;;10254034;23;20075;-80
2022/07/30 22:08:51;;;;;;;8.93;5.57;;;;;;;;;;10238180;23;20330;-79
2022/07/30 22:12:54;;;;;;;7.93;5.65;;;;;;;;;;10237706;23;20017;-81
2022/07/30 22:16:59;;;;;;;7.60;6.45;;;;;;;;;;10237854;23;20021;-79
2022/07/30 22:21:05;;;;;;;7.80;5.93;;;;;;;;;;10237680;23;20013;-78
2022/07/30 22:25:09;;;;;;;8.40;6.40;;;;;;;;;;10236070;23;20095;-82
2022/07/30 22:29:12;;;;;;;9.48;6.40;;;;;;;;;;10235437;23;20021;-78
2022/07/30 22:33:16;;;;;;;7.68;5.55;;;;;;;;;;10234349;23;20083;-78
2022/07/30 22:37:21;;;;;;;8.30;5.65;;;;;;;;;;10235939;23;20021;-82
2022/07/30 22:41:23;;;;;;;5.97;4.68;;;;;;;;;;10237499;23;20025;-78
2022/07/30 22:45:27;;;;;;;9.00;5.70;;;;;;;;;;10237530;23;20013;-78
2022/07/30 22:49:29;;;;;;;8.20;5.43;;;;;;;;;;10237819;23;20040;-78
2022/07/30 22:53:34;;;;;;;7.13;5.43;;;;;;;;;;10237860;23;20329;-79
2022/07/30 22:57:36;;;;;;;7.85;5.15;;;;;;;;;;10237884;23;20013;-78
2022/07/30 23:01:39;;;;;;;7.50;5.95;;;;;;;;;;10238102;23;20341;-79
2022/07/30 23:05:42;;;;;;;7.78;5.65;;;;;;;;;;10237704;23;20021;-80
2022/07/30 23:09:47;;;;;;;7.70;5.85;;;;;;;;;;10239316;23;20017;-78
2022/07/30 23:13:52;;;;;;;6.97;6.28;;;;;;;;;;10239911;23;20071;-79
2022/07/30 23:17:55;;;;;;;7.53;5.30;;;;;;;;;;10256780;23;20021;-78
2022/07/30 23:21:57;;;;;;;7.28;5.38;;;;;;;;;;10240699;23;20342;-80
2022/07/30 23:26:01;;;;;;;10.50;5.32;;;;;;;;;;10240723;23;20013;-80
2022/07/30 23:30:05;;;;;;;10.38;6.38;;;;;;;;;;10240200;23;20016;-79
2022/07/30 23:34:07;;;;;;;9.48;5.80;;;;;;;;;;10239888;23;20017;-79
2022/07/30 23:38:10;;;;;;;8.00;5.70;;;;;;;;;;10239928;23;20021;-79
2022/07/30 23:42:15;;;;;;;11.35;7.45;;;;;;;;;;10239239;23;20613;-86
2022/07/30 23:46:17;;;;;;;8.85;5.65;;;;;;;;;;10238889;23;20500;-79
2022/07/30 23:50:20;;;;;;;7.63;6.00;;;;;;;;;;10239084;23;20390;-79
2022/07/30 23:54:22;;;;;;;8.77;6.40;;;;;;;;;;10238116;23;20021;-79
2022/07/30 23:58:27;;;;;;;6.85;5.85;;;;;;;;;;10238908;23;20055;-79
